createdAt,value
2022-08-19T00:00:06.426Z,50.885544
2022-08-19T00:01:06.435Z,50.885509
2022-08-19T00:02:06.419Z,50.885601
2022-08-19T00:03:06.409Z,50.885551
2022-08-19T00:04:06.423Z,50.885643
2022-08-19T00:05:06.386Z,50.885422
2022-08-19T00:06:06.402Z,50.885414
2022-08-19T00:07:06.409Z,50.885521
2022-08-19T00:08:06.398Z,50.885578
2022-08-19T00:09:06.412Z,50.885544
2022-08-19T00:10:06.381Z,50.885647
2022-08-19T00:11:06.371Z,50.885532
2022-08-19T00:12:07.360Z,50.885578
2022-08-19T00:13:06.362Z,50.885574
2022-08-19T00:14:06.350Z,50.885674
2022-08-19T00:15:06.462Z,50.885422
2022-08-19T00:16:07.339Z,50.885448
2022-08-19T00:17:06.350Z,50.885483
2022-08-19T00:18:06.316Z,50.885555
2022-08-19T00:19:06.321Z,50.885578
2022-08-19T00:20:06.347Z,50.885601
2022-08-19T00:21:06.306Z,50.885586
2022-08-19T00:22:06.314Z,50.885445
2022-08-19T00:23:06.291Z,50.885498
2022-08-19T00:24:06.290Z,50.885540
2022-08-19T00:25:06.279Z,50.885597
2022-08-19T00:26:06.394Z,50.885559
2022-08-19T00:27:25.927Z,50.885590
2022-08-19T00:28:07.262Z,50.885540
2022-08-19T00:29:06.270Z,50.885571
2022-08-19T00:30:06.264Z,50.885593
2022-08-19T00:31:06.275Z,50.885593
2022-08-19T00:32:06.258Z,50.885567
2022-08-19T00:33:06.261Z,50.885544
2022-08-19T00:34:06.829Z,50.885506
2022-08-19T00:35:06.228Z,50.885605
2022-08-19T00:36:06.229Z,50.885658
2022-08-19T00:37:06.327Z,50.885723
2022-08-19T00:38:06.243Z,50.885612
2022-08-19T00:39:06.211Z,50.885551
2022-08-19T00:40:06.260Z,50.885563
2022-08-19T00:41:06.230Z,50.885632
2022-08-19T00:42:06.228Z,50.885590
2022-08-19T00:43:06.198Z,50.885590
2022-08-19T00:44:06.192Z,50.885571
2022-08-19T00:45:06.184Z,50.885555
2022-08-19T00:46:06.179Z,50.885597
2022-08-19T00:47:06.172Z,50.885536
2022-08-19T00:48:14.728Z,50.885536
2022-08-19T00:49:07.166Z,50.885536
2022-08-19T00:50:06.145Z,50.885509
2022-08-19T00:51:06.133Z,50.885468
2022-08-19T00:52:06.135Z,50.885616
2022-08-19T00:53:06.153Z,50.885559
2022-08-19T00:54:06.137Z,50.885574
2022-08-19T00:55:06.144Z,50.885509
2022-08-19T00:56:06.114Z,50.885536
2022-08-19T00:57:06.100Z,50.885605
2022-08-19T00:58:06.108Z,50.885582
2022-08-19T00:59:06.211Z,50.885654
2022-08-19T01:00:06.094Z,50.885651
2022-08-19T01:01:06.116Z,50.885624
2022-08-19T01:02:06.082Z,50.885643
2022-08-19T01:03:06.061Z,50.885601
2022-08-19T01:04:06.079Z,50.885597
2022-08-19T01:05:06.068Z,50.885654
2022-08-19T01:06:06.067Z,50.885605
2022-08-19T01:07:06.042Z,50.885551
2022-08-19T01:08:06.048Z,50.885571
2022-08-19T01:09:06.043Z,50.885571
2022-08-19T01:10:06.053Z,50.885456
2022-08-19T01:11:06.102Z,50.885544
2022-08-19T01:12:06.020Z,50.885513
2022-08-19T01:13:05.999Z,50.885448
2022-08-19T01:14:06.017Z,50.885452
2022-08-19T01:15:06.044Z,50.885574
2022-08-19T01:16:05.999Z,50.885571
2022-08-19T01:17:05.988Z,50.885578
2022-08-19T01:18:06.028Z,50.885525
2022-08-19T01:19:05.990Z,50.885551
2022-08-19T01:20:05.977Z,50.885563
2022-08-19T01:21:05.981Z,50.885605
2022-08-19T01:22:14.234Z,50.885559
2022-08-19T01:23:06.957Z,50.885597
2022-08-19T01:24:05.955Z,50.885593
2022-08-19T01:25:10.740Z,50.885685
2022-08-19T01:26:06.957Z,50.885593
2022-08-19T01:27:05.950Z,50.885578
2022-08-19T01:28:10.549Z,50.885536
2022-08-19T01:29:06.918Z,50.885525
2022-08-19T01:30:05.917Z,50.885544
2022-08-19T01:31:07.858Z,50.885563
2022-08-19T01:32:06.752Z,50.885551
2022-08-19T01:33:05.897Z,50.885502
2022-08-19T01:34:05.886Z,50.885433
2022-08-19T01:35:05.899Z,50.885452
2022-08-19T01:36:05.885Z,50.885586
2022-08-19T01:37:05.919Z,50.885696
2022-08-19T01:38:05.873Z,50.885620
2022-08-19T01:39:05.875Z,50.885521
2022-08-19T01:40:09.327Z,50.885555
2022-08-19T01:41:09.778Z,50.885548
2022-08-19T01:42:05.869Z,50.885567
2022-08-19T01:43:05.881Z,50.885494
2022-08-19T01:44:17.366Z,50.885464
2022-08-19T01:45:06.836Z,50.885479
2022-08-19T01:46:05.839Z,50.885414
2022-08-19T01:47:05.831Z,50.885414
2022-08-19T01:48:05.838Z,50.885376
2022-08-19T01:49:05.813Z,50.885464
2022-08-19T01:50:05.813Z,50.885471
2022-08-19T01:51:05.810Z,50.885502
2022-08-19T01:52:05.809Z,50.885391
2022-08-19T01:53:06.082Z,50.885414
2022-08-19T01:54:05.877Z,50.885384
2022-08-19T01:55:05.771Z,50.885441
2022-08-19T01:56:05.788Z,50.885300
2022-08-19T01:57:05.754Z,50.885281
2022-08-19T01:58:05.762Z,50.885376
2022-08-19T01:59:05.797Z,50.885410
2022-08-19T02:00:05.751Z,50.885509
2022-08-19T02:01:05.817Z,50.885361
2022-08-19T02:02:05.730Z,50.885490
2022-08-19T02:03:05.726Z,50.885410
2022-08-19T02:04:05.741Z,50.885349
2022-08-19T02:05:05.741Z,50.885323
2022-08-19T02:06:05.714Z,50.885231
2022-08-19T02:07:05.717Z,50.885303
2022-08-19T02:08:05.713Z,50.885105
2022-08-19T02:09:05.703Z,50.885365
2022-08-19T02:10:12.280Z,50.885433
2022-08-19T02:11:06.683Z,50.885441
2022-08-19T02:12:05.694Z,50.885624
2022-08-19T02:13:05.691Z,50.885395
2022-08-19T02:14:05.653Z,50.885521
2022-08-19T02:15:05.666Z,50.885384
2022-08-19T02:16:05.679Z,50.885437
2022-08-19T02:17:05.664Z,50.885502
2022-08-19T02:18:05.650Z,50.885624
2022-08-19T02:19:05.646Z,50.885605
2022-08-19T02:20:05.643Z,50.885685
2022-08-19T02:21:05.655Z,50.885620
2022-08-19T02:22:05.649Z,50.885700
2022-08-19T02:23:05.638Z,50.885605
2022-08-19T02:24:06.627Z,50.885532
2022-08-19T02:25:05.620Z,50.885590
2022-08-19T02:26:05.597Z,50.885414
2022-08-19T02:27:05.735Z,50.885624
2022-08-19T02:28:05.591Z,50.885361
2022-08-19T02:29:05.601Z,50.885639
2022-08-19T02:30:05.592Z,50.885605
2022-08-19T02:31:05.583Z,50.885548
2022-08-19T02:32:05.590Z,50.885612
2022-08-19T02:33:05.574Z,50.885574
2022-08-19T02:34:05.569Z,50.885605
2022-08-19T02:35:12.319Z,50.885666
2022-08-19T02:36:06.554Z,50.885628
2022-08-19T02:37:05.550Z,50.885624
2022-08-19T02:38:05.580Z,50.885612
2022-08-19T02:39:05.532Z,50.885605
2022-08-19T02:40:05.557Z,50.885639
2022-08-19T02:41:06.525Z,50.885628
2022-08-19T02:42:05.515Z,50.885670
2022-08-19T02:43:05.629Z,50.885555
2022-08-19T02:44:30.663Z,50.885616
2022-08-19T02:45:05.497Z,50.885654
2022-08-19T02:46:05.502Z,50.885567
2022-08-19T02:47:05.504Z,50.885567
2022-08-19T02:48:05.489Z,50.885544
2022-08-19T02:49:06.510Z,50.885624
2022-08-19T02:50:05.474Z,50.885574
2022-08-19T02:51:05.471Z,50.885635
2022-08-19T02:52:05.466Z,50.885624
2022-08-19T02:53:05.459Z,50.885628
2022-08-19T02:54:05.457Z,50.885624
2022-08-19T02:55:05.457Z,50.885651
2022-08-19T02:56:05.434Z,50.885677
2022-08-19T02:57:05.436Z,50.885647
2022-08-19T02:58:05.428Z,50.885597
2022-08-19T02:59:05.429Z,50.885567
2022-08-19T03:00:05.441Z,50.885540
2022-08-19T03:01:05.437Z,50.885612
2022-08-19T03:02:05.425Z,50.885628
2022-08-19T03:03:05.413Z,50.885651
2022-08-19T03:04:05.401Z,50.885654
2022-08-19T03:05:05.492Z,50.885639
2022-08-19T03:06:05.390Z,50.885609
2022-08-19T03:07:10.949Z,50.885586
2022-08-19T03:08:06.384Z,50.885605
2022-08-19T03:09:05.365Z,50.885612
2022-08-19T03:10:05.368Z,50.885601
2022-08-19T03:11:05.379Z,50.885624
2022-08-19T03:12:05.345Z,50.885643
2022-08-19T03:13:05.340Z,50.885662
2022-08-19T03:14:05.346Z,50.885616
2022-08-19T03:15:05.332Z,50.885578
2022-08-19T03:16:05.364Z,50.885578
2022-08-19T03:17:05.331Z,50.885571
2022-08-19T03:18:05.322Z,50.885590
2022-08-19T03:19:05.311Z,50.885601
2022-08-19T03:20:05.298Z,50.885605
2022-08-19T03:21:05.293Z,50.885635
2022-08-19T03:22:05.336Z,50.885574
2022-08-19T03:23:05.300Z,50.885441
2022-08-19T03:24:05.279Z,50.885548
2022-08-19T03:25:05.292Z,50.885567
2022-08-19T03:26:16.681Z,50.885567
2022-08-19T03:27:05.302Z,50.885586
2022-08-19T03:28:05.263Z,50.885624
2022-08-19T03:29:05.547Z,50.885643
2022-08-19T03:30:05.263Z,50.885639
2022-08-19T03:31:05.261Z,50.885616
2022-08-19T03:32:06.263Z,50.885628
2022-08-19T03:33:05.492Z,50.885689
2022-08-19T03:34:05.226Z,50.885555
2022-08-19T03:35:05.229Z,50.885620
2022-08-19T03:36:05.228Z,50.885586
2022-08-19T03:37:05.202Z,50.885635
2022-08-19T03:38:05.318Z,50.885658
2022-08-19T03:39:05.206Z,50.885593
2022-08-19T03:40:05.220Z,50.885822
2022-08-19T03:41:05.176Z,50.885647
2022-08-19T03:42:38.481Z,50.885574
2022-08-19T03:43:06.302Z,50.885498
2022-08-19T03:44:05.160Z,50.885586
2022-08-19T03:45:05.166Z,50.885555
2022-08-19T03:46:05.171Z,50.885593
2022-08-19T03:47:39.295Z,50.885574
2022-08-19T03:48:05.159Z,50.885517
2022-08-19T03:49:05.258Z,50.885517
2022-08-19T03:50:05.135Z,50.885639
2022-08-19T03:51:05.144Z,50.885643
2022-08-19T03:52:05.138Z,50.885593
2022-08-19T03:53:05.118Z,50.885590
2022-08-19T03:54:05.140Z,50.885616
2022-08-19T03:55:05.108Z,50.885578
2022-08-19T03:56:05.093Z,50.885612
2022-08-19T03:57:05.095Z,50.885529
2022-08-19T03:58:05.092Z,50.885525
2022-08-19T03:59:05.107Z,50.885525
2022-08-19T04:00:12.958Z,50.885551
2022-08-19T04:01:05.126Z,50.885548
2022-08-19T04:02:05.071Z,50.885597
2022-08-19T04:03:05.111Z,50.885548
2022-08-19T04:04:05.059Z,50.885559
2022-08-19T04:05:05.068Z,50.885670
2022-08-19T04:06:05.040Z,50.885666
2022-08-19T04:07:05.049Z,50.885715
2022-08-19T04:08:05.041Z,50.885574
2022-08-19T04:09:05.025Z,50.885571
2022-08-19T04:10:05.031Z,50.885586
2022-08-19T04:11:05.048Z,50.885490
2022-08-19T04:12:05.033Z,50.885624
2022-08-19T04:13:05.037Z,50.885513
2022-08-19T04:14:05.007Z,50.885536
2022-08-19T04:15:05.007Z,50.885624
2022-08-19T04:16:05.101Z,50.885586
2022-08-19T04:17:04.997Z,50.885544
2022-08-19T04:18:04.986Z,50.885517
2022-08-19T04:19:04.987Z,50.885487
2022-08-19T04:20:06.907Z,50.885529
2022-08-19T04:21:04.966Z,50.885540
2022-08-19T04:22:04.973Z,50.885632
2022-08-19T04:23:04.947Z,50.885662
2022-08-19T04:24:04.936Z,50.885540
2022-08-19T04:25:04.962Z,50.885479
2022-08-19T04:26:04.937Z,50.885536
2022-08-19T04:27:04.962Z,50.885578
2022-08-19T04:28:04.931Z,50.885597
2022-08-19T04:29:06.553Z,50.885540
2022-08-19T04:30:04.910Z,50.885567
2022-08-19T04:31:04.898Z,50.885544
2022-08-19T04:32:08.830Z,50.885521
2022-08-19T04:33:05.013Z,50.885525
2022-08-19T04:34:04.903Z,50.885471
2022-08-19T04:35:17.977Z,50.885334
2022-08-19T04:36:05.883Z,50.885437
2022-08-19T04:37:04.880Z,50.885239
2022-08-19T04:38:04.979Z,50.885490
2022-08-19T04:39:04.879Z,50.885559
2022-08-19T04:40:04.901Z,50.885551
2022-08-19T04:41:04.862Z,50.885605
2022-08-19T04:42:04.868Z,50.885681
2022-08-19T04:43:04.887Z,50.885704
2022-08-19T04:44:04.891Z,50.885624
2022-08-19T04:45:05.397Z,50.885441
2022-08-19T04:46:04.824Z,50.885624
2022-08-19T04:47:11.409Z,50.885563
2022-08-19T04:48:26.763Z,50.885612
2022-08-19T04:49:10.433Z,50.885605
2022-08-19T04:50:04.821Z,50.885654
2022-08-19T04:51:04.814Z,50.885578
2022-08-19T04:52:04.820Z,50.885490
2022-08-19T04:53:04.781Z,50.885635
2022-08-19T04:54:04.774Z,50.885632
2022-08-19T04:55:04.807Z,50.885601
2022-08-19T04:56:04.786Z,50.885666
2022-08-19T04:57:04.761Z,50.885612
2022-08-19T04:58:04.784Z,50.885609
2022-08-19T04:59:04.782Z,50.885601
2022-08-19T05:00:04.786Z,50.885555
2022-08-19T05:01:04.854Z,50.885590
2022-08-19T05:02:04.750Z,50.885548
2022-08-19T05:03:04.741Z,50.885563
2022-08-19T05:04:04.744Z,50.885590
2022-08-19T05:05:04.731Z,50.885635
2022-08-19T05:06:04.823Z,50.885574
2022-08-19T05:07:04.711Z,50.885551
2022-08-19T05:08:04.713Z,50.885555
2022-08-19T05:09:04.709Z,50.885586
2022-08-19T05:10:04.688Z,50.885635
2022-08-19T05:11:04.827Z,50.885632
2022-08-19T05:12:04.696Z,50.885742
2022-08-19T05:13:04.706Z,50.885689
2022-08-19T05:14:04.689Z,50.885628
2022-08-19T05:15:04.693Z,50.885612
2022-08-19T05:16:04.673Z,50.885551
2022-08-19T05:17:26.093Z,50.885620
2022-08-19T05:18:05.662Z,50.885654
2022-08-19T05:19:04.660Z,50.885662
2022-08-19T05:20:04.653Z,50.885639
2022-08-19T05:21:04.654Z,50.885624
2022-08-19T05:22:04.662Z,50.885609
2022-08-19T05:23:12.890Z,50.885563
2022-08-19T05:24:05.654Z,50.885551
2022-08-19T05:25:12.773Z,50.885609
2022-08-19T05:26:05.617Z,50.885643
2022-08-19T05:27:04.612Z,50.885632
2022-08-19T05:28:04.638Z,50.885651
2022-08-19T05:29:04.584Z,50.885647
2022-08-19T05:30:04.589Z,50.885647
2022-08-19T05:31:04.588Z,50.885540
2022-08-19T05:32:04.576Z,50.885628
2022-08-19T05:33:04.716Z,50.885601
2022-08-19T05:34:04.576Z,50.885574
2022-08-19T05:35:05.552Z,50.885548
2022-08-19T05:36:04.577Z,50.885574
2022-08-19T05:37:04.566Z,50.885674
2022-08-19T05:38:04.544Z,50.885536
2022-08-19T05:39:04.571Z,50.885582
2022-08-19T05:40:04.620Z,50.885555
2022-08-19T05:41:04.527Z,50.885586
2022-08-19T05:42:04.540Z,50.885586
2022-08-19T05:43:04.517Z,50.885643
2022-08-19T05:44:04.654Z,50.885624
2022-08-19T05:45:04.519Z,50.885571
2022-08-19T05:46:04.501Z,50.885578
2022-08-19T05:47:04.493Z,50.885536
2022-08-19T05:48:04.489Z,50.885532
2022-08-19T05:49:04.508Z,50.885590
2022-08-19T05:50:05.150Z,50.885567
2022-08-19T05:51:04.486Z,50.885632
2022-08-19T05:52:04.468Z,50.885609
2022-08-19T05:53:04.482Z,50.885612
2022-08-19T05:54:04.458Z,50.885624
2022-08-19T05:55:04.493Z,50.885544
2022-08-19T05:56:04.455Z,50.885540
2022-08-19T05:57:04.461Z,50.885578
2022-08-19T05:58:04.446Z,50.885544
2022-08-19T05:59:04.458Z,50.885490
2022-08-19T06:00:04.421Z,50.885490
2022-08-19T06:01:04.459Z,50.885525
2022-08-19T06:02:04.413Z,50.885460
2022-08-19T06:03:04.411Z,50.885509
2022-08-19T06:04:04.399Z,50.885517
2022-08-19T06:05:04.414Z,50.885517
2022-08-19T06:06:04.429Z,50.885540
2022-08-19T06:07:12.310Z,50.885544
2022-08-19T06:08:04.390Z,50.885567
2022-08-19T06:09:04.396Z,50.885563
2022-08-19T06:10:04.372Z,50.885551
2022-08-19T06:11:04.359Z,50.885601
2022-08-19T06:12:05.360Z,50.885628
2022-08-19T06:13:06.339Z,50.885658
2022-08-19T06:14:05.475Z,50.885605
2022-08-19T06:15:05.468Z,50.885609
2022-08-19T06:16:06.847Z,50.885525
2022-08-19T06:17:07.111Z,50.885571
2022-08-19T06:18:05.345Z,50.885651
2022-08-19T06:19:04.333Z,50.885563
2022-08-19T06:20:04.313Z,50.885532
2022-08-19T06:21:04.312Z,50.885487
2022-08-19T06:22:04.302Z,50.885555
2022-08-19T06:23:04.420Z,50.885567
2022-08-19T06:24:05.309Z,50.885616
2022-08-19T06:25:04.296Z,50.885639
2022-08-19T06:26:04.282Z,50.885574
2022-08-19T06:27:04.278Z,50.885635
2022-08-19T06:28:19.132Z,50.885616
2022-08-19T06:29:06.257Z,50.885563
2022-08-19T06:30:04.272Z,50.885536
2022-08-19T06:31:04.285Z,50.885265
2022-08-19T06:32:04.238Z,50.885456
2022-08-19T06:33:04.234Z,50.885548
2022-08-19T06:34:04.257Z,50.885632
2022-08-19T06:35:04.249Z,50.885479
2022-08-19T06:36:04.234Z,50.885490
2022-08-19T06:37:04.221Z,50.885452
2022-08-19T06:38:04.228Z,50.885662
2022-08-19T06:39:04.246Z,50.885693
2022-08-19T06:40:04.232Z,50.885628
2022-08-19T06:41:07.335Z,50.885674
2022-08-19T06:42:04.215Z,50.885612
2022-08-19T06:43:04.195Z,50.885571
2022-08-19T06:44:04.165Z,50.885624
2022-08-19T06:45:04.222Z,50.885597
2022-08-19T06:46:05.180Z,50.885502
2022-08-19T06:47:09.607Z,50.885555
2022-08-19T06:48:05.167Z,50.885513
2022-08-19T06:49:04.177Z,50.885567
2022-08-19T06:50:05.464Z,50.885506
2022-08-19T06:51:04.159Z,50.885544
2022-08-19T06:52:04.132Z,50.885593
2022-08-19T06:53:04.743Z,50.885597
2022-08-19T06:54:04.137Z,50.885693
2022-08-19T06:55:06.384Z,50.885746
2022-08-19T06:56:04.134Z,50.885742
2022-08-19T06:57:04.119Z,50.885715
2022-08-19T06:58:04.099Z,50.885624
2022-08-19T06:59:04.113Z,50.885433
2022-08-19T07:00:04.079Z,50.885525
2022-08-19T07:01:07.096Z,50.885563
2022-08-19T07:02:05.208Z,50.885471
2022-08-19T07:03:07.725Z,50.885551
2022-08-19T07:04:04.064Z,50.885563
2022-08-19T07:05:04.075Z,50.885662
2022-08-19T07:06:05.385Z,50.885567
2022-08-19T07:07:19.563Z,50.885632
2022-08-19T07:08:05.164Z,50.885624
2022-08-19T07:09:04.054Z,50.885586
2022-08-19T07:10:06.118Z,50.885582
2022-08-19T07:11:04.044Z,50.885563
2022-08-19T07:12:04.067Z,50.885567
2022-08-19T07:13:04.026Z,50.885567
2022-08-19T07:14:04.024Z,50.885597
2022-08-19T07:15:04.034Z,50.885540
2022-08-19T07:16:05.621Z,50.885612
2022-08-19T07:17:04.023Z,50.885586
2022-08-19T07:18:04.100Z,50.885628
2022-08-19T07:19:14.486Z,50.885563
2022-08-19T07:20:09.470Z,50.885647
2022-08-19T07:21:05.063Z,50.885658
2022-08-19T07:22:03.984Z,50.885670
2022-08-19T07:23:07.191Z,50.885666
2022-08-19T07:24:06.747Z,50.885658
2022-08-19T07:25:03.962Z,50.885612
2022-08-19T07:27:10.336Z,50.885635
2022-08-19T07:28:05.000Z,50.885670
2022-08-19T07:29:03.973Z,50.885643
2022-08-19T07:30:03.933Z,50.885651
2022-08-19T07:31:03.939Z,50.885513
2022-08-19T07:32:03.918Z,50.885582
2022-08-19T07:33:04.952Z,50.885624
2022-08-19T07:34:04.135Z,50.885620
2022-08-19T07:35:03.913Z,50.885548
2022-08-19T07:36:03.987Z,50.885529
2022-08-19T07:37:03.904Z,50.885693
2022-08-19T07:38:03.904Z,50.885674
2022-08-19T07:39:04.010Z,50.885719
2022-08-19T07:40:03.941Z,50.885635
2022-08-19T07:41:03.881Z,50.885654
2022-08-19T07:42:03.881Z,50.885677
2022-08-19T07:43:03.874Z,50.885647
2022-08-19T07:44:03.873Z,50.885582
2022-08-19T07:45:03.882Z,50.885612
2022-08-19T07:46:03.890Z,50.885471
2022-08-19T07:47:03.848Z,50.885536
2022-08-19T07:48:04.310Z,50.885605
2022-08-19T07:49:03.832Z,50.885666
2022-08-19T07:50:03.862Z,50.885662
2022-08-19T07:51:03.830Z,50.885708
2022-08-19T07:52:03.827Z,50.885719
2022-08-19T07:53:03.820Z,50.885674
2022-08-19T07:54:03.797Z,50.885609
2022-08-19T07:55:03.805Z,50.885609
2022-08-19T07:56:03.824Z,50.885651
2022-08-19T07:57:03.779Z,50.885654
2022-08-19T07:58:03.784Z,50.885628
2022-08-19T07:59:03.756Z,50.885651
2022-08-19T08:00:03.774Z,50.885712
2022-08-19T08:01:03.794Z,50.885635
2022-08-19T08:02:03.787Z,50.885742
2022-08-19T08:03:03.761Z,50.885559
2022-08-19T08:04:03.768Z,50.885612
2022-08-19T08:05:03.753Z,50.885624
2022-08-19T08:06:03.744Z,50.885662
2022-08-19T08:07:03.750Z,50.885700
2022-08-19T08:08:03.735Z,50.885685
2022-08-19T08:09:03.726Z,50.885708
2022-08-19T08:10:03.833Z,50.885746
2022-08-19T08:11:03.707Z,50.885780
2022-08-19T08:12:17.963Z,50.885750
2022-08-19T08:13:10.150Z,50.885635
2022-08-19T08:14:04.773Z,50.885605
2022-08-19T08:15:03.683Z,50.885609
2022-08-19T08:16:03.678Z,50.885719
2022-08-19T08:17:03.674Z,50.885742
2022-08-19T08:18:04.815Z,50.885696
2022-08-19T08:19:03.663Z,50.885788
2022-08-19T08:20:04.660Z,50.885761
2022-08-19T08:21:03.661Z,50.885654
2022-08-19T08:22:03.673Z,50.885590
2022-08-19T08:23:03.680Z,50.885662
2022-08-19T08:24:03.656Z,50.885590
2022-08-19T08:25:03.640Z,50.885555
2022-08-19T08:26:03.613Z,50.885624
2022-08-19T08:27:03.631Z,50.885643
2022-08-19T08:28:03.624Z,50.885746
2022-08-19T08:29:13.026Z,50.885693
2022-08-19T08:30:03.598Z,50.885605
2022-08-19T08:31:03.586Z,50.885632
2022-08-19T08:32:14.060Z,50.885593
2022-08-19T08:33:03.623Z,50.885517
2022-08-19T08:34:03.681Z,50.885548
2022-08-19T08:35:03.577Z,50.885536
2022-08-19T08:36:04.162Z,50.885529
2022-08-19T08:37:03.570Z,50.885563
2022-08-19T08:38:03.575Z,50.885513
2022-08-19T08:39:03.560Z,50.885498
2022-08-19T08:40:03.606Z,50.885586
2022-08-19T08:41:03.555Z,50.885647
2022-08-19T08:42:10.187Z,50.885590
2022-08-19T08:44:03.525Z,50.885468
2022-08-19T08:45:03.622Z,50.885586
2022-08-19T08:46:03.529Z,50.885609
2022-08-19T08:47:03.544Z,50.885567
2022-08-19T08:48:03.519Z,50.885532
2022-08-19T08:49:03.498Z,50.885563
2022-08-19T08:50:03.546Z,50.885536
2022-08-19T08:51:03.595Z,50.885506
2022-08-19T08:52:03.489Z,50.885448
2022-08-19T08:53:03.486Z,50.885452
2022-08-19T08:54:03.491Z,50.885509
2022-08-19T08:55:03.469Z,50.885593
2022-08-19T08:56:04.508Z,50.885551
2022-08-19T08:57:03.467Z,50.885521
2022-08-19T08:58:03.464Z,50.885494
2022-08-19T08:59:03.470Z,50.885532
2022-08-19T09:00:03.469Z,50.885490
2022-08-19T09:01:03.464Z,50.885502
2022-08-19T09:02:03.584Z,50.885578
2022-08-19T09:03:03.442Z,50.885571
2022-08-19T09:04:03.873Z,50.885509
2022-08-19T09:05:03.443Z,50.885513
2022-08-19T09:06:03.421Z,50.885475
2022-08-19T09:07:03.429Z,50.885506
2022-08-19T09:08:04.408Z,50.885502
2022-08-19T09:09:03.412Z,50.885597
2022-08-19T09:10:03.398Z,50.885670
2022-08-19T09:11:03.395Z,50.885635
2022-08-19T09:12:03.373Z,50.885586
2022-08-19T09:13:03.390Z,50.885632
2022-08-19T09:14:04.370Z,50.885612
2022-08-19T09:15:03.380Z,50.885506
2022-08-19T09:16:03.378Z,50.885471
2022-08-19T09:17:03.368Z,50.885540
2022-08-19T09:18:03.373Z,50.885647
2022-08-19T09:19:03.330Z,50.885567
2022-08-19T09:20:03.331Z,50.885544
2022-08-19T09:21:03.347Z,50.885620
2022-08-19T09:22:03.321Z,50.885559
2022-08-19T09:23:03.338Z,50.885513
2022-08-19T09:24:03.749Z,50.885540
2022-08-19T09:25:03.322Z,50.885601
2022-08-19T09:26:03.321Z,50.885666
2022-08-19T09:27:07.971Z,50.885681
2022-08-19T09:28:05.896Z,50.885628
2022-08-19T09:29:04.422Z,50.885700
2022-08-19T09:30:03.300Z,50.885586
2022-08-19T09:31:03.278Z,50.885616
2022-08-19T09:32:03.296Z,50.885643
2022-08-19T09:33:03.278Z,50.885654
2022-08-19T09:34:03.292Z,50.885563
2022-08-19T09:35:03.510Z,50.885433
2022-08-19T09:36:04.264Z,50.885506
2022-08-19T09:37:03.258Z,50.885643
2022-08-19T09:38:03.237Z,50.885597
2022-08-19T09:39:03.229Z,50.885536
2022-08-19T09:40:03.332Z,50.885635
2022-08-19T09:41:03.238Z,50.885662
2022-08-19T09:42:03.225Z,50.885780
2022-08-19T09:43:03.215Z,50.885845
2022-08-19T09:44:04.217Z,50.885658
2022-08-19T09:45:05.006Z,50.885555
2022-08-19T09:46:03.335Z,50.885639
2022-08-19T09:47:03.209Z,50.885689
2022-08-19T09:48:35.944Z,50.885670
2022-08-19T09:49:06.665Z,50.885647
2022-08-19T09:50:03.190Z,50.885601
2022-08-19T09:51:03.205Z,50.885612
2022-08-19T09:52:03.186Z,50.885479
2022-08-19T09:53:03.181Z,50.885532
2022-08-19T09:54:04.535Z,50.885563
2022-08-19T09:55:07.358Z,50.885571
2022-08-19T09:56:04.199Z,50.885231
2022-08-19T09:57:03.747Z,50.885422
2022-08-19T09:58:03.160Z,50.885571
2022-08-19T09:59:03.143Z,50.885540
2022-08-19T10:00:03.132Z,50.885612
2022-08-19T10:01:03.157Z,50.885696
2022-08-19T10:02:03.931Z,50.885689
2022-08-19T10:03:03.504Z,50.885658
2022-08-19T10:04:07.671Z,50.885612
2022-08-19T10:05:04.104Z,50.885578
2022-08-19T10:06:03.102Z,50.885605
2022-08-19T10:07:03.095Z,50.885624
2022-08-19T10:08:04.466Z,50.885506
2022-08-19T10:09:03.084Z,50.885490
2022-08-19T10:10:03.086Z,50.885582
2022-08-19T10:11:27.345Z,50.885582
2022-08-19T10:12:04.097Z,50.885601
2022-08-19T10:13:03.121Z,50.885506
2022-08-19T10:14:03.067Z,50.885548
2022-08-19T10:15:03.053Z,50.885521
2022-08-19T10:16:03.074Z,50.885487
2022-08-19T10:17:04.588Z,50.885593
2022-08-19T10:18:03.038Z,50.885571
2022-08-19T10:19:03.670Z,50.885628
2022-08-19T10:20:03.055Z,50.885578
2022-08-19T10:21:03.036Z,50.885593
2022-08-19T10:22:03.026Z,50.885509
2022-08-19T10:23:03.051Z,50.885513
2022-08-19T10:24:03.054Z,50.885693
2022-08-19T10:25:03.026Z,50.885567
2022-08-19T10:26:03.093Z,50.885761
2022-08-19T10:27:02.995Z,50.885578
2022-08-19T10:28:03.010Z,50.885567
2022-08-19T10:29:03.009Z,50.885681
2022-08-19T10:30:03.111Z,50.885628
2022-08-19T10:31:02.995Z,50.885498
2022-08-19T10:32:03.378Z,50.885593
2022-08-19T10:33:08.465Z,50.885532
2022-08-19T10:34:04.955Z,50.885620
2022-08-19T10:35:02.976Z,50.885555
2022-08-19T10:36:02.966Z,50.885559
2022-08-19T10:37:02.954Z,50.885544
2022-08-19T10:38:03.236Z,50.885551
2022-08-19T10:39:02.935Z,50.885471
2022-08-19T10:40:03.053Z,50.885387
2022-08-19T10:41:02.959Z,50.885410
2022-08-19T10:42:02.941Z,50.885368
2022-08-19T10:43:02.930Z,50.885387
2022-08-19T10:44:04.371Z,50.885391
2022-08-19T10:45:02.979Z,50.885441
2022-08-19T10:46:03.110Z,50.885448
2022-08-19T10:47:02.907Z,50.885445
2022-08-19T10:48:02.875Z,50.885513
2022-08-19T10:49:02.901Z,50.885479
2022-08-19T10:50:02.878Z,50.885483
2022-08-19T10:51:02.889Z,50.885574
2022-08-19T10:52:03.004Z,50.885647
2022-08-19T10:53:02.865Z,50.885624
2022-08-19T10:54:03.868Z,50.885578
2022-08-19T10:55:05.364Z,50.885597
2022-08-19T10:56:03.868Z,50.885551
2022-08-19T10:57:02.951Z,50.885635
2022-08-19T10:58:03.014Z,50.885525
2022-08-19T10:59:02.826Z,50.885506
2022-08-19T11:00:02.818Z,50.885593
2022-08-19T11:01:02.873Z,50.885597
2022-08-19T11:02:02.810Z,50.885586
2022-08-19T11:03:02.917Z,50.885643
2022-08-19T11:04:02.793Z,50.885612
2022-08-19T11:05:05.575Z,50.885571
2022-08-19T11:06:04.781Z,50.885506
2022-08-19T11:07:02.789Z,50.885494
2022-08-19T11:08:02.968Z,50.885521
2022-08-19T11:09:03.779Z,50.885517
2022-08-19T11:10:02.809Z,50.885555
2022-08-19T11:11:02.768Z,50.885513
2022-08-19T11:12:04.654Z,50.885567
2022-08-19T11:13:03.869Z,50.885498
2022-08-19T11:14:02.760Z,50.885551
2022-08-19T11:15:02.749Z,50.885540
2022-08-19T11:16:06.802Z,50.885559
2022-08-19T11:17:04.738Z,50.885517
2022-08-19T11:18:02.733Z,50.885536
2022-08-19T11:19:02.904Z,50.885597
2022-08-19T11:20:02.735Z,50.885574
2022-08-19T11:21:02.714Z,50.885563
2022-08-19T11:22:02.775Z,50.885567
2022-08-19T11:23:02.717Z,50.885551
2022-08-19T11:24:02.739Z,50.885551
2022-08-19T11:25:02.691Z,50.885517
2022-08-19T11:26:02.698Z,50.885498